createdAt,value
2022-08-20T00:01:16.363Z,90.52
2022-08-20T00:03:44.607Z,90.46
2022-08-20T00:06:17.377Z,90.73
2022-08-20T00:08:45.442Z,90.84
2022-08-20T00:11:18.240Z,91.17
2022-08-20T00:13:51.847Z,91.71
2022-08-20T00:16:21.756Z,91.73
2022-08-20T00:21:37.789Z,91.98
2022-08-20T00:24:06.029Z,91.72
2022-08-20T00:26:33.569Z,91.58
2022-08-20T00:29:00.746Z,91.85
2022-08-20T00:31:27.999Z,91.83
2022-08-20T00:33:55.065Z,92.07
2022-08-20T00:36:22.876Z,92.28
2022-08-20T00:39:11.745Z,92.43
2022-08-20T00:41:38.879Z,93.03
2022-08-20T00:44:08.162Z,93.83
2022-08-20T00:46:35.946Z,94.22
2022-08-20T00:49:07.867Z,95.11
2022-08-20T00:52:02.832Z,95.29
2022-08-20T00:54:45.752Z,96.04
2022-08-20T00:58:00.705Z,96.34
2022-08-20T01:00:37.904Z,97.02
2022-08-20T01:03:09.664Z,97.16
2022-08-20T01:05:42.557Z,97.06
2022-08-20T01:08:09.518Z,96.68
2022-08-20T01:10:39.597Z,96.51
2022-08-20T01:13:11.080Z,96.73
2022-08-20T01:15:43.398Z,97.21
2022-08-20T01:18:15.981Z,97.71
2022-08-20T01:21:01.312Z,97.96
2022-08-20T01:24:01.552Z,97.78
2022-08-20T01:26:38.586Z,98.55
2022-08-20T01:29:11.254Z,98.51
2022-08-20T01:31:40.733Z,98.50
2022-08-20T01:34:12.363Z,98.89
2022-08-20T01:36:48.391Z,98.88
2022-08-20T01:39:30.325Z,99.68
2022-08-20T01:42:08.084Z,100.00
2022-08-20T01:44:38.478Z,99.87
2022-08-20T01:47:19.949Z,99.80
2022-08-20T01:49:52.539Z,99.68
2022-08-20T01:52:37.906Z,99.60
2022-08-20T01:55:05.792Z,99.52
2022-08-20T01:57:33.914Z,99.74
2022-08-20T02:00:01.940Z,99.58
2022-08-20T02:02:32.373Z,99.27
2022-08-20T02:05:00.817Z,99.60
2022-08-20T02:07:32.257Z,100.00
2022-08-20T02:10:00.140Z,100.00
2022-08-20T02:12:27.196Z,100.00
2022-08-20T02:14:55.960Z,100.00
2022-08-20T02:17:25.429Z,100.00
2022-08-20T02:19:59.386Z,100.00
2022-08-20T02:22:51.804Z,100.00
2022-08-20T02:25:23.110Z,100.00
2022-08-20T02:27:52.658Z,100.00
2022-08-20T02:30:28.668Z,100.00
2022-08-20T02:32:57.933Z,100.00
2022-08-20T02:35:25.664Z,100.00
2022-08-20T02:37:53.813Z,100.00
2022-08-20T02:40:30.957Z,100.00
2022-08-20T02:43:02.751Z,100.00
2022-08-20T02:45:36.204Z,100.00
2022-08-20T02:48:05.494Z,100.00
2022-08-20T02:50:32.436Z,100.00
2022-08-20T02:52:59.449Z,100.00
2022-08-20T02:55:27.490Z,100.00
2022-08-20T02:58:00.032Z,100.00
2022-08-20T03:00:32.141Z,100.00
2022-08-20T03:03:08.149Z,100.00
2022-08-20T03:05:36.394Z,100.00
2022-08-20T03:08:08.417Z,100.00
2022-08-20T03:10:37.965Z,100.00
2022-08-20T03:13:06.525Z,100.00
2022-08-20T03:15:34.898Z,100.00
2022-08-20T03:18:01.915Z,100.00
2022-08-20T03:20:29.604Z,100.00
2022-08-20T03:22:57.034Z,100.00
2022-08-20T03:25:24.278Z,100.00
2022-08-20T03:27:55.082Z,100.00
2022-08-20T03:30:26.727Z,100.00
2022-08-20T03:32:54.820Z,100.00
2022-08-20T03:35:24.441Z,100.00
2022-08-20T03:37:52.108Z,100.00
2022-08-20T03:40:34.037Z,100.00
2022-08-20T03:43:01.813Z,100.00
2022-08-20T03:45:29.911Z,100.00
2022-08-20T03:47:57.930Z,100.00
2022-08-20T03:50:29.581Z,100.00
2022-08-20T03:52:57.657Z,100.00
2022-08-20T03:55:28.457Z,100.00
2022-08-20T03:58:01.091Z,100.00
2022-08-20T04:00:40.658Z,100.00
2022-08-20T04:03:08.562Z,100.00
2022-08-20T04:05:40.511Z,100.00
2022-08-20T04:08:15.937Z,100.00
2022-08-20T04:10:45.454Z,100.00
2022-08-20T04:13:14.492Z,100.00
2022-08-20T04:15:42.061Z,100.00
2022-08-20T04:18:11.877Z,100.00
2022-08-20T04:20:42.345Z,100.00
2022-08-20T04:23:10.283Z,100.00
2022-08-20T04:25:43.250Z,100.00
2022-08-20T04:28:24.799Z,100.00
2022-08-20T04:30:52.435Z,100.00
2022-08-20T04:33:33.515Z,100.00
2022-08-20T04:36:02.750Z,100.00
2022-08-20T04:38:50.246Z,100.00
2022-08-20T04:41:23.685Z,100.00
2022-08-20T04:43:54.127Z,100.00
2022-08-20T04:46:25.368Z,100.00
2022-08-20T04:48:52.367Z,100.00
2022-08-20T04:51:22.951Z,100.00
2022-08-20T04:53:53.362Z,100.00
2022-08-20T04:56:30.844Z,100.00
2022-08-20T04:59:00.570Z,100.00
2022-08-20T05:01:28.818Z,100.00
2022-08-20T05:03:57.382Z,100.00
2022-08-20T05:06:29.681Z,100.00
2022-08-20T05:08:59.273Z,100.00
2022-08-20T05:11:35.486Z,100.00
2022-08-20T05:14:11.297Z,100.00
2022-08-20T05:16:40.248Z,100.00
2022-08-20T05:19:13.403Z,100.00
2022-08-20T05:21:41.071Z,100.00
2022-08-20T05:24:09.997Z,100.00
2022-08-20T05:26:37.197Z,100.00
2022-08-20T05:29:13.702Z,100.00
2022-08-20T05:31:41.980Z,100.00
2022-08-20T05:34:12.512Z,100.00
2022-08-20T05:36:48.234Z,100.00
2022-08-20T05:39:21.794Z,100.00
2022-08-20T05:41:51.168Z,100.00
2022-08-20T05:44:19.015Z,100.00
2022-08-20T05:46:47.747Z,100.00
2022-08-20T05:49:20.799Z,100.00
2022-08-20T05:51:49.411Z,100.00
2022-08-20T05:54:16.412Z,100.00
2022-08-20T05:56:43.618Z,100.00
2022-08-20T05:59:12.269Z,100.00
2022-08-20T06:01:40.499Z,100.00
2022-08-20T06:04:29.784Z,100.00
2022-08-20T06:07:05.799Z,100.00
2022-08-20T06:09:33.839Z,100.00
2022-08-20T06:12:04.509Z,100.00
2022-08-20T06:14:32.405Z,100.00
2022-08-20T06:17:09.173Z,100.00
2022-08-20T06:19:39.564Z,100.00
2022-08-20T06:22:20.911Z,100.00
2022-08-20T06:24:54.918Z,100.00
2022-08-20T06:27:22.064Z,100.00
2022-08-20T06:29:53.696Z,100.00
2022-08-20T06:32:31.832Z,100.00
2022-08-20T06:35:05.877Z,100.00
2022-08-20T06:37:37.216Z,100.00
2022-08-20T06:40:28.421Z,100.00
2022-08-20T06:42:57.163Z,100.00
2022-08-20T06:45:29.714Z,100.00
2022-08-20T06:48:01.101Z,100.00
2022-08-20T06:50:43.232Z,100.00
2022-08-20T06:53:19.276Z,100.00
2022-08-20T06:55:53.368Z,100.00
2022-08-20T06:58:36.156Z,100.00
2022-08-20T07:01:11.505Z,100.00
2022-08-20T07:03:42.228Z,100.00
2022-08-20T07:06:24.886Z,100.00
2022-08-20T07:08:51.908Z,100.00
2022-08-20T07:11:24.949Z,100.00
2022-08-20T07:13:56.568Z,100.00
2022-08-20T07:16:23.797Z,100.00
2022-08-20T07:18:50.747Z,100.00
2022-08-20T07:21:17.720Z,100.00
2022-08-20T07:23:45.052Z,100.00
2022-08-20T07:26:13.099Z,100.00
2022-08-20T07:28:40.291Z,100.00
2022-08-20T07:31:26.069Z,100.00
2022-08-20T07:33:54.100Z,100.00
2022-08-20T07:36:21.017Z,100.00
2022-08-20T07:38:50.784Z,100.00
2022-08-20T07:41:17.709Z,100.00
2022-08-20T07:43:45.684Z,100.00
2022-08-20T07:46:16.040Z,100.00
2022-08-20T07:48:46.845Z,100.00
2022-08-20T07:51:19.449Z,100.00
2022-08-20T07:53:48.130Z,100.00
2022-08-20T07:56:19.931Z,100.00
2022-08-20T07:58:52.527Z,100.00
2022-08-20T08:01:25.853Z,100.00
2022-08-20T08:03:53.475Z,100.00
2022-08-20T08:06:29.716Z,100.00
2022-08-20T08:09:13.002Z,100.00
2022-08-20T08:11:49.905Z,100.00
2022-08-20T08:14:23.419Z,100.00
2022-08-20T08:16:50.931Z,100.00
2022-08-20T08:19:18.929Z,100.00
2022-08-20T08:21:45.994Z,100.00
2022-08-20T08:24:17.998Z,100.00
2022-08-20T08:26:53.043Z,100.00
2022-08-20T08:29:19.959Z,100.00
2022-08-20T08:31:46.966Z,100.00
2022-08-20T08:34:14.195Z,100.00
2022-08-20T08:36:42.279Z,100.00
2022-08-20T08:39:09.268Z,100.00
2022-08-20T08:41:47.151Z,100.00
2022-08-20T08:44:33.474Z,100.00
2022-08-20T08:47:26.039Z,100.00
2022-08-20T08:49:57.264Z,100.00
2022-08-20T08:52:31.691Z,100.00
2022-08-20T08:55:02.454Z,100.00
2022-08-20T08:57:30.085Z,100.00
2022-08-20T09:00:03.883Z,100.00
2022-08-20T09:02:33.779Z,100.00
2022-08-20T09:05:04.508Z,100.00
2022-08-20T09:07:33.484Z,100.00
2022-08-20T09:10:02.289Z,100.00
2022-08-20T09:12:29.468Z,100.00
2022-08-20T09:14:57.294Z,100.00
2022-08-20T09:17:24.639Z,100.00
2022-08-20T09:23:08.292Z,100.00
2022-08-20T09:25:35.471Z,100.00
2022-08-20T09:28:02.632Z,100.00
2022-08-20T09:30:30.810Z,100.00
2022-08-20T09:33:01.955Z,100.00
2022-08-20T09:35:29.593Z,100.00
2022-08-20T09:37:56.829Z,100.00
2022-08-20T09:40:23.902Z,100.00
2022-08-20T09:42:51.431Z,95.50
2022-08-20T09:45:19.573Z,93.98
2022-08-20T09:47:55.262Z,96.00
2022-08-20T09:50:26.805Z,96.74
2022-08-20T09:52:55.854Z,97.61
2022-08-20T09:55:39.141Z,96.37
2022-08-20T09:58:48.748Z,95.51
2022-08-20T10:01:18.496Z,95.04
2022-08-20T10:03:50.152Z,92.94
2022-08-20T10:06:20.250Z,91.13
2022-08-20T10:08:48.443Z,90.64
2022-08-20T10:11:16.293Z,92.28
2022-08-20T10:13:45.446Z,93.41
2022-08-20T10:16:12.487Z,94.10
2022-08-20T10:18:39.485Z,93.57
2022-08-20T10:21:12.859Z,91.30
2022-08-20T10:23:39.848Z,89.16
2022-08-20T10:26:11.747Z,89.12
2022-08-20T10:28:39.687Z,87.81
2022-08-20T10:31:12.224Z,88.54
2022-08-20T10:33:41.000Z,87.36
2022-08-20T10:36:15.469Z,88.16
2022-08-20T10:38:44.325Z,88.62
2022-08-20T10:41:11.531Z,86.92
2022-08-20T10:43:38.585Z,88.78
2022-08-20T10:46:06.003Z,90.96
2022-08-20T10:48:33.208Z,88.56
2022-08-20T10:51:00.207Z,86.44
2022-08-20T10:53:27.315Z,83.53
2022-08-20T10:55:56.375Z,84.72
2022-08-20T10:58:24.377Z,85.38
2022-08-20T11:00:52.418Z,84.62
2022-08-20T11:03:20.191Z,85.88
2022-08-20T11:05:47.874Z,85.92
2022-08-20T11:08:15.144Z,83.22
2022-08-20T11:11:00.355Z,81.10
2022-08-20T11:13:27.549Z,78.26
2022-08-20T11:15:54.558Z,75.34
2022-08-20T11:18:21.472Z,67.86
2022-08-20T11:20:48.712Z,69.57
2022-08-20T11:23:15.592Z,68.42
2022-08-20T11:25:42.583Z,68.34
2022-08-20T11:28:09.747Z,66.81
2022-08-20T11:30:37.792Z,64.64
2022-08-20T11:33:05.951Z,65.08
2022-08-20T11:35:49.484Z,64.07
2022-08-20T11:38:18.108Z,61.96
2022-08-20T11:40:46.727Z,62.22
2022-08-20T11:43:16.208Z,62.16
2022-08-20T11:45:48.820Z,62.37
2022-08-20T11:48:15.942Z,60.21
2022-08-20T11:50:42.885Z,58.09
2022-08-20T11:53:10.072Z,58.53
2022-08-20T11:55:38.809Z,58.49
2022-08-20T11:58:06.843Z,55.81
2022-08-20T12:00:34.419Z,56.84
2022-08-20T12:03:04.869Z,58.25
2022-08-20T12:05:32.736Z,60.47
2022-08-20T12:08:03.785Z,60.63
2022-08-20T12:10:31.049Z,61.51
2022-08-20T12:12:58.819Z,63.28
2022-08-20T12:15:29.507Z,63.42
2022-08-20T12:17:56.622Z,62.50
2022-08-20T12:20:24.862Z,62.58
2022-08-20T12:22:53.911Z,60.85
2022-08-20T12:25:21.200Z,61.03
2022-08-20T12:27:48.131Z,60.15
2022-08-20T12:30:19.863Z,57.63
2022-08-20T12:32:47.723Z,57.39
2022-08-20T12:35:16.940Z,57.07
2022-08-20T12:37:45.353Z,56.45
2022-08-20T12:40:22.734Z,54.82
2022-08-20T12:42:59.190Z,55.14
2022-08-20T12:45:26.167Z,57.44
2022-08-20T12:47:53.331Z,55.42
2022-08-20T12:50:29.681Z,55.37
2022-08-20T12:52:58.734Z,55.53
2022-08-20T12:55:26.142Z,55.48
2022-08-20T12:57:57.336Z,56.71
2022-08-20T13:00:33.404Z,55.99
2022-08-20T13:03:04.285Z,55.09
2022-08-20T13:05:33.091Z,56.09
2022-08-20T13:08:01.173Z,55.67
2022-08-20T13:10:32.856Z,55.75
2022-08-20T13:13:03.642Z,55.13
2022-08-20T13:15:41.677Z,52.27
2022-08-20T13:18:09.259Z,54.39
2022-08-20T13:20:36.817Z,55.35
2022-08-20T13:23:05.812Z,55.17
2022-08-20T13:25:33.293Z,55.94
2022-08-20T13:28:04.502Z,55.76
2022-08-20T13:30:34.284Z,54.73
2022-08-20T13:33:01.726Z,54.10
2022-08-20T13:35:28.680Z,54.55
2022-08-20T13:37:56.018Z,54.27
2022-08-20T13:40:23.222Z,55.21
2022-08-20T13:42:50.162Z,52.57
2022-08-20T13:45:17.678Z,54.55
2022-08-20T13:47:44.712Z,53.39
2022-08-20T13:50:20.919Z,53.67
2022-08-20T13:52:48.486Z,54.11
2022-08-20T13:55:19.192Z,53.82
2022-08-20T13:57:47.722Z,54.96
2022-08-20T14:00:32.345Z,55.42
2022-08-20T14:03:01.891Z,55.44
2022-08-20T14:05:30.526Z,54.49
2022-08-20T14:08:20.174Z,55.11
2022-08-20T14:10:51.353Z,54.00
2022-08-20T14:13:21.855Z,52.72
2022-08-20T14:15:49.392Z,53.10
2022-08-20T14:18:16.741Z,53.44
2022-08-20T14:20:45.491Z,52.59
2022-08-20T14:23:13.091Z,52.63
2022-08-20T14:25:40.135Z,53.37
2022-08-20T14:28:21.108Z,53.70
2022-08-20T14:30:53.278Z,53.80
2022-08-20T14:33:22.623Z,53.78
2022-08-20T14:35:49.646Z,53.61
2022-08-20T14:38:16.603Z,53.68
2022-08-20T14:40:43.718Z,53.95
2022-08-20T14:43:10.800Z,54.08
2022-08-20T14:45:37.726Z,52.69
2022-08-20T14:48:08.344Z,52.10
2022-08-20T14:50:36.540Z,51.96
2022-08-20T14:53:04.368Z,52.90
2022-08-20T14:55:37.252Z,52.96
2022-08-20T14:58:12.696Z,54.32
2022-08-20T15:00:40.101Z,54.49
2022-08-20T15:03:07.148Z,53.93
2022-08-20T15:05:34.771Z,53.38
2022-08-20T15:08:07.394Z,54.56
2022-08-20T15:10:34.559Z,54.11
2022-08-20T15:13:02.458Z,54.02
2022-08-20T15:15:29.816Z,54.16
2022-08-20T15:18:03.394Z,52.05
2022-08-20T15:20:33.399Z,51.50
2022-08-20T15:23:01.106Z,52.35
2022-08-20T15:25:36.743Z,52.42
2022-08-20T15:28:08.684Z,52.86
2022-08-20T15:30:38.581Z,54.02
2022-08-20T15:33:06.026Z,53.80
2022-08-20T15:35:33.262Z,53.82
2022-08-20T15:38:00.631Z,53.47
2022-08-20T15:40:31.040Z,51.91
2022-08-20T15:43:00.535Z,51.91
2022-08-20T15:45:27.774Z,52.28
2022-08-20T15:48:06.363Z,53.12
2022-08-20T15:50:48.286Z,52.64
2022-08-20T15:54:02.710Z,52.10
2022-08-20T15:56:58.816Z,52.11
2022-08-20T15:59:50.717Z,52.66
2022-08-20T16:02:25.867Z,53.35
2022-08-20T16:05:13.111Z,54.93
2022-08-20T16:08:34.991Z,55.88
2022-08-20T16:11:40.295Z,55.59
2022-08-20T16:14:18.869Z,55.58
2022-08-20T16:16:50.722Z,55.56
2022-08-20T16:19:40.965Z,55.32
2022-08-20T16:22:13.972Z,55.31
2022-08-20T16:24:40.919Z,55.23
2022-08-20T16:27:19.735Z,56.86
2022-08-20T16:30:16.569Z,56.95
2022-08-20T16:33:02.493Z,57.33
2022-08-20T16:35:53.626Z,57.56
2022-08-20T16:39:00.629Z,56.25
2022-08-20T16:41:48.285Z,56.42
2022-08-20T16:44:39.541Z,57.26
2022-08-20T16:47:26.989Z,56.82
2022-08-20T16:50:04.777Z,56.65
2022-08-20T16:52:32.219Z,57.04
2022-08-20T16:54:59.640Z,57.41
2022-08-20T16:57:29.982Z,56.83
2022-08-20T17:00:14.013Z,56.73
2022-08-20T17:02:57.320Z,56.68
2022-08-20T17:05:51.718Z,56.45
2022-08-20T17:08:33.592Z,56.50
2022-08-20T17:11:11.096Z,56.57
2022-08-20T17:13:45.359Z,56.78
2022-08-20T17:16:15.224Z,56.48
2022-08-20T17:18:52.482Z,57.20
2022-08-20T17:21:33.085Z,57.54
2022-08-20T17:24:24.574Z,58.09
2022-08-20T17:27:10.560Z,58.30
2022-08-20T17:29:57.002Z,57.93
2022-08-20T17:32:29.110Z,57.53
2022-08-20T17:34:59.861Z,56.95
2022-08-20T17:37:50.509Z,57.50
2022-08-20T17:40:46.076Z,58.39
2022-08-20T17:43:30.927Z,58.98
2022-08-20T17:46:02.682Z,58.81
2022-08-20T17:48:46.991Z,58.70
2022-08-20T17:51:34.372Z,58.24
2022-08-20T17:54:15.285Z,57.79
2022-08-20T17:56:44.486Z,58.39
2022-08-20T18:00:00.637Z,58.83
2022-08-20T18:02:13.926Z,58.91
2022-08-20T18:04:41.125Z,58.71
2022-08-20T18:07:11.026Z,58.56
2022-08-20T18:10:26.354Z,58.37
2022-08-20T18:13:17.161Z,58.76
2022-08-20T18:15:58.127Z,59.08
2022-08-20T18:18:49.435Z,59.71
2022-08-20T18:21:41.726Z,59.68
2022-08-20T18:24:52.174Z,59.87
2022-08-20T18:27:22.219Z,60.40
2022-08-20T18:30:00.037Z,60.49
2022-08-20T18:32:37.173Z,60.19
2022-08-20T18:35:32.227Z,60.70
2022-08-20T18:38:12.838Z,61.53
2022-08-20T18:40:41.518Z,61.54
2022-08-20T18:43:15.430Z,62.42
2022-08-20T18:45:42.988Z,62.40
2022-08-20T18:48:24.902Z,62.48
2022-08-20T18:50:56.250Z,63.08
2022-08-20T18:53:33.614Z,63.05
2022-08-20T18:56:11.869Z,63.58
2022-08-20T18:59:04.665Z,65.08
2022-08-20T19:01:37.076Z,64.61
2022-08-20T19:04:26.301Z,65.77
2022-08-20T19:06:59.502Z,65.32
2022-08-20T19:09:32.402Z,65.21
2022-08-20T19:12:15.632Z,65.61
2022-08-20T19:15:07.168Z,65.74
2022-08-20T19:18:11.900Z,65.91
2022-08-20T19:20:49.052Z,65.99
2022-08-20T19:23:21.003Z,67.70
2022-08-20T19:25:59.479Z,67.39
2022-08-20T19:28:39.978Z,67.42
2022-08-20T19:31:20.851Z,67.14
2022-08-20T19:33:48.950Z,67.41
2022-08-20T19:36:28.128Z,67.95
2022-08-20T19:39:01.642Z,68.77
2022-08-20T19:41:45.258Z,70.12
2022-08-20T19:44:12.364Z,71.39
2022-08-20T19:46:45.376Z,71.76
2022-08-20T19:49:24.438Z,72.95
2022-08-20T19:52:20.365Z,73.04
2022-08-20T19:54:52.845Z,72.80
2022-08-20T19:57:21.778Z,73.35
2022-08-20T20:00:06.924Z,75.06
2022-08-20T20:02:34.954Z,75.76
2022-08-20T20:05:08.775Z,75.54
2022-08-20T20:07:47.049Z,76.25
2022-08-20T20:10:35.560Z,76.32
2022-08-20T20:13:13.682Z,76.93
2022-08-20T20:15:41.263Z,77.27
2022-08-20T20:18:09.171Z,78.20
2022-08-20T20:20:50.245Z,78.17
2022-08-20T20:23:46.159Z,79.08
2022-08-20T20:26:18.017Z,78.94
2022-08-20T20:28:47.459Z,79.15
2022-08-20T20:31:45.084Z,79.37
2022-08-20T20:34:14.886Z,79.79
2022-08-20T20:36:47.959Z,80.09
2022-08-20T20:39:36.384Z,80.17
2022-08-20T20:42:08.118Z,80.29
2022-08-20T20:44:41.684Z,80.61
2022-08-20T20:47:20.374Z,81.24
2022-08-20T20:49:56.571Z,82.55
2022-08-20T20:52:29.079Z,82.85
2022-08-20T20:55:25.934Z,83.70
2022-08-20T20:57:53.791Z,84.10
2022-08-20T21:00:28.673Z,84.36
2022-08-20T21:02:56.692Z,84.07
2022-08-20T21:05:28.641Z,84.38
2022-08-20T21:08:02.333Z,84.80
2022-08-20T21:10:34.971Z,85.08
2022-08-20T21:13:03.845Z,85.99
2022-08-20T21:15:32.460Z,86.30
2022-08-20T21:18:02.549Z,87.11
2022-08-20T21:20:30.959Z,87.46
2022-08-20T21:22:59.739Z,87.26
2022-08-20T21:25:30.026Z,87.86
2022-08-20T21:27:57.505Z,88.60
2022-08-20T21:30:26.034Z,89.13
2022-08-20T21:32:53.578Z,89.56
2022-08-20T21:35:21.281Z,89.88
2022-08-20T21:37:48.308Z,90.11
2022-08-20T21:40:18.177Z,90.13
2022-08-20T21:42:49.484Z,90.67
2022-08-20T21:45:19.668Z,91.17
2022-08-20T21:47:49.150Z,92.63
2022-08-20T21:50:19.068Z,93.19
2022-08-20T21:52:55.289Z,93.62
2022-08-20T21:55:30.170Z,92.68
2022-08-20T21:57:58.634Z,92.50
2022-08-20T22:01:01.543Z,93.77
2022-08-20T22:03:33.112Z,93.88
2022-08-20T22:06:03.456Z,93.56
2022-08-20T22:08:31.072Z,93.83
2022-08-20T22:10:59.592Z,93.96
2022-08-20T22:13:31.625Z,94.50
2022-08-20T22:16:06.214Z,94.17
2022-08-20T22:18:34.267Z,93.16
2022-08-20T22:21:02.133Z,93.29
2022-08-20T22:23:29.356Z,93.56
2022-08-20T22:25:56.318Z,94.05
2022-08-20T22:28:23.477Z,94.30
2022-08-20T22:30:50.617Z,94.46
2022-08-20T22:33:22.903Z,95.07
2022-08-20T22:35:55.283Z,95.51
2022-08-20T22:38:22.647Z,95.89
2022-08-20T22:40:50.302Z,96.21
2022-08-20T22:43:18.790Z,95.84
2022-08-20T22:45:49.479Z,95.52
2022-08-20T22:48:19.897Z,95.93
2022-08-20T22:50:48.940Z,96.46
2022-08-20T22:53:18.710Z,97.10
2022-08-20T22:55:46.096Z,96.96
2022-08-20T22:58:15.444Z,96.95
2022-08-20T23:00:45.981Z,97.66
2022-08-20T23:03:15.790Z,98.52
2022-08-20T23:05:47.588Z,98.88
2022-08-20T23:08:15.006Z,98.99
2022-08-20T23:10:42.113Z,99.29
2022-08-20T23:13:09.115Z,99.49
2022-08-20T23:15:45.207Z,99.66
2022-08-20T23:18:19.365Z,99.81
2022-08-20T23:20:56.310Z,100.00
2022-08-20T23:23:25.969Z,100.00
2022-08-20T23:25:54.124Z,100.00
2022-08-20T23:28:24.205Z,100.00
2022-08-20T23:30:51.875Z,100.00
2022-08-20T23:33:19.094Z,100.00
2022-08-20T23:35:47.111Z,100.00
2022-08-20T23:38:14.417Z,100.00
2022-08-20T23:40:42.277Z,100.00
2022-08-20T23:43:09.816Z,100.00
2022-08-20T23:45:39.666Z,100.00
2022-08-20T23:48:07.999Z,100.00
2022-08-20T23:50:35.736Z,100.00
2022-08-20T23:53:04.327Z,100.00
2022-08-20T23:55:31.391Z,100.00
2022-08-20T23:57:58.721Z,100.00
